NSZ3MB ESSA-LEBL
Flight info
| Callsign | NSZ3MB |
|---|---|
| Flight time | N/A |
| Altitude | 36000 |
| Route | NOSLI N850 ABAMA DCT MAKEL DCT GESTO/N0454F380 DCT EXOBA DCT ASBON/N0450F370 DCT ELVET DCT OBORN DCT MOROK DCT GILIR DCT GEVEA DCT INCUS DCT BALSI DCT ETIDO DCT KURIR DCT PEQEF DCT NAKIS DCT BOLSA DCT PPG DCT ALBER |
| Aircraft | B38M/M-SDE2E3GHIJ1LRWXY/LB2 |
Departure
| Time | 2026-05-07 15:54 |
|---|---|
| Airport | Stockholm-Arlanda Airport (ESSA) |
Arrival
| Time | N/A |
|---|---|
| Airport | Josep Tarradellas Barcelona-El Prat Airport (LEBL) |
| Time | Latitude | Longitude | Altitude | Speed | Heading |
|---|---|---|---|---|---|
| 2026-05-07 15:23 | 59.65199 | 17.93016 | 112 ft | 0 kts | 71° |
| 2026-05-07 15:43 | 59.65193 | 17.92985 | 112 ft | 3 kts | 70° |
| 2026-05-07 15:43 | 59.65193 | 17.92940 | 113 ft | 4 kts | 119° |
| 2026-05-07 15:44 | 59.65206 | 17.92896 | 112 ft | 3 kts | 110° |
| 2026-05-07 15:44 | 59.65213 | 17.92853 | 111 ft | 4 kts | 109° |
| 2026-05-07 15:44 | 59.65220 | 17.92814 | 112 ft | 4 kts | 109° |
| 2026-05-07 15:44 | 59.65229 | 17.92764 | 112 ft | 4 kts | 109° |
| 2026-05-07 15:45 | 59.65234 | 17.92732 | 113 ft | 1 kts | 109° |
| 2026-05-07 15:49 | 59.65232 | 17.92759 | 113 ft | 5 kts | 92° |
| 2026-05-07 15:49 | 59.65264 | 17.92803 | 114 ft | 7 kts | 346° |
| 2026-05-07 15:50 | 59.65313 | 17.92755 | 114 ft | 9 kts | 331° |
| 2026-05-07 15:50 | 59.65371 | 17.92693 | 114 ft | 10 kts | 334° |
| 2026-05-07 15:50 | 59.65442 | 17.92616 | 112 ft | 14 kts | 331° |
| 2026-05-07 15:50 | 59.65549 | 17.92522 | 107 ft | 19 kts | 343° |
| 2026-05-07 15:51 | 59.65681 | 17.92453 | 106 ft | 17 kts | 346° |
| 2026-05-07 15:51 | 59.65778 | 17.92427 | 108 ft | 14 kts | 7° |
| 2026-05-07 15:51 | 59.65878 | 17.92461 | 110 ft | 15 kts | 11° |
| 2026-05-07 15:51 | 59.65999 | 17.92506 | 112 ft | 19 kts | 11° |
| 2026-05-07 15:52 | 59.66131 | 17.92554 | 114 ft | 19 kts | 10° |
| 2026-05-07 15:52 | 59.66260 | 17.92599 | 118 ft | 18 kts | 10° |
| 2026-05-07 15:52 | 59.66381 | 17.92641 | 123 ft | 17 kts | 10° |
| 2026-05-07 15:52 | 59.66494 | 17.92634 | 124 ft | 16 kts | 341° |
| 2026-05-07 15:53 | 59.66596 | 17.92555 | 126 ft | 14 kts | 328° |
| 2026-05-07 15:53 | 59.66619 | 17.92418 | 127 ft | 8 kts | 266° |
| 2026-05-07 15:53 | 59.66581 | 17.92355 | 126 ft | 8 kts | 189° |
| 2026-05-07 15:53 | 59.66491 | 17.92325 | 124 ft | 34 kts | 190° |
| 2026-05-07 15:54 | 59.65975 | 17.92137 | 117 ft | 115 kts | 191° |
| 2026-05-07 15:54 | 59.64964 | 17.91764 | 198 ft | 171 kts | 190° |
| 2026-05-07 15:54 | 59.63786 | 17.91288 | 1060 ft | 174 kts | 191° |
| 2026-05-07 15:54 | 59.62612 | 17.90890 | 2112 ft | 175 kts | 190° |
| 2026-05-07 15:55 | 59.61346 | 17.90363 | 2693 ft | 197 kts | 198° |
| 2026-05-07 15:55 | 59.60111 | 17.88906 | 3244 ft | 220 kts | 227° |
| 2026-05-07 15:55 | 59.59333 | 17.86257 | 4071 ft | 224 kts | 256° |
| 2026-05-07 15:55 | 59.58955 | 17.83199 | 4485 ft | 233 kts | 255° |
| 2026-05-07 15:56 | 59.58371 | 17.80255 | 5317 ft | 227 kts | 244° |
| 2026-05-07 15:56 | 59.57643 | 17.77475 | 6304 ft | 231 kts | 244° |
| 2026-05-07 15:56 | 59.56775 | 17.74726 | 7011 ft | 246 kts | 227° |
| 2026-05-07 15:56 | 59.55860 | 17.73299 | 7375 ft | 261 kts | 212° |
| 2026-05-07 15:57 | 59.53639 | 17.70987 | 8347 ft | 275 kts | 210° |
| 2026-05-07 15:57 | 59.51934 | 17.69258 | 9352 ft | 277 kts | 211° |
| 2026-05-07 15:57 | 59.50206 | 17.67528 | 10266 ft | 280 kts | 211° |
| 2026-05-07 15:57 | 59.49034 | 17.66360 | 10664 ft | 291 kts | 211° |
| 2026-05-07 15:58 | 59.47164 | 17.64507 | 11048 ft | 312 kts | 211° |
| 2026-05-07 15:58 | 59.45162 | 17.62535 | 11404 ft | 332 kts | 210° |
| 2026-05-07 15:58 | 59.43052 | 17.60467 | 11889 ft | 346 kts | 210° |
| 2026-05-07 15:58 | 59.40874 | 17.58336 | 12588 ft | 351 kts | 210° |
| 2026-05-07 15:59 | 59.38679 | 17.56187 | 13357 ft | 356 kts | 211° |
| 2026-05-07 15:59 | 59.36448 | 17.54009 | 14071 ft | 360 kts | 211° |
| 2026-05-07 15:59 | 59.34197 | 17.51813 | 14743 ft | 363 kts | 211° |
| 2026-05-07 15:59 | 59.31933 | 17.49607 | 15454 ft | 365 kts | 211° |
| 2026-05-07 16:00 | 59.29654 | 17.47391 | 16134 ft | 367 kts | 211° |
| 2026-05-07 16:00 | 59.27362 | 17.45164 | 16782 ft | 369 kts | 211° |
| 2026-05-07 16:00 | 59.25053 | 17.42925 | 17447 ft | 371 kts | 211° |
| 2026-05-07 16:00 | 59.22732 | 17.40677 | 18095 ft | 374 kts | 211° |